Terminal Aerodrome Forecast
Issued by NWS Bismarck, ND

Home | Current Version | Previous Version | Text Only | Print | Product List | Glossary Off
Versions: 1 2 3 4 5 6 7 8 9 10 11 12 13 14 15 16 17

568
FTUS43 KBIS 222218 AAC
TAFBIS
TAF AMD
KBIS 222218Z 2222/2318 36015G24KT P6SM VCSH BKN070
      TEMPO 2222/2301 6SM -SHRA BKN050
     FM230200 36009KT P6SM OVC070
     FM231400 36015G20KT P6SM BKN050=

USA.gov is the U.S. government's official web portal to all federal, state and local government web resources and services.